createdAt,value
2023-02-19T00:01:48.871Z,101.55
2023-02-19T00:04:25.131Z,124.28
2023-02-19T00:06:52.523Z,79.50
2023-02-19T00:09:20.336Z,74.73
2023-02-19T00:11:48.659Z,78.45
2023-02-19T00:14:21.523Z,61.90
2023-02-19T00:16:49.980Z,52.30
2023-02-19T00:19:20.648Z,53.87
2023-02-19T00:21:50.662Z,48.23
2023-02-19T00:24:18.538Z,49.67
2023-02-19T00:26:46.552Z,50.65
2023-02-19T00:29:16.689Z,45.73
2023-02-19T00:31:44.655Z,48.63
2023-02-19T00:34:13.482Z,50.07
2023-02-19T00:36:42.673Z,45.57
2023-02-19T00:39:15.911Z,47.50
2023-02-19T00:41:44.431Z,51.80
2023-02-19T00:44:12.411Z,49.93
2023-02-19T00:46:46.202Z,50.20
2023-02-19T00:49:22.002Z,43.70
2023-02-19T00:51:51.383Z,55.57
2023-02-19T00:54:18.832Z,51.17
2023-02-19T00:56:46.641Z,51.57
2023-02-19T00:59:14.614Z,49.67
2023-02-19T01:01:42.342Z,58.47
2023-02-19T01:04:11.177Z,47.20
2023-02-19T01:06:39.244Z,62.90
2023-02-19T01:09:07.927Z,59.87
2023-02-19T01:11:36.203Z,50.87
2023-02-19T01:14:05.307Z,56.37
2023-02-19T01:16:32.918Z,61.00
2023-02-19T01:19:00.371Z,55.40
2023-02-19T01:21:32.636Z,52.07
2023-02-19T01:24:00.516Z,48.73
2023-02-19T01:26:32.378Z,50.53
2023-02-19T01:29:01.674Z,49.23
2023-02-19T01:31:29.765Z,52.23
2023-02-19T01:34:00.749Z,47.67
2023-02-19T01:36:28.823Z,48.63
2023-02-19T01:38:56.477Z,48.57
2023-02-19T01:41:25.838Z,48.17
2023-02-19T01:44:11.622Z,45.77
2023-02-19T01:46:40.357Z,47.43
2023-02-19T01:49:07.405Z,49.67
2023-02-19T01:51:38.181Z,47.07
2023-02-19T01:54:07.722Z,47.03
2023-02-19T01:56:38.627Z,45.73
2023-02-19T01:59:07.662Z,45.07
2023-02-19T02:01:37.800Z,42.30
2023-02-19T02:04:07.059Z,40.90
2023-02-19T02:06:47.145Z,39.70
2023-02-19T02:09:45.511Z,40.43
2023-02-19T02:12:13.143Z,41.53
2023-02-19T02:14:43.662Z,46.37
2023-02-19T02:17:21.541Z,45.07
2023-02-19T02:20:17.089Z,47.30
2023-02-19T02:23:00.766Z,44.97
2023-02-19T02:25:58.672Z,40.67
2023-02-19T02:28:37.784Z,37.40
2023-02-19T02:31:30.877Z,30.03
2023-02-19T02:34:21.047Z,41.13
2023-02-19T02:36:55.934Z,48.00
2023-02-19T02:39:26.216Z,94.50
2023-02-19T02:42:17.193Z,104.57
2023-02-19T02:45:10.312Z,105.88
2023-02-19T02:47:57.562Z,112.23
2023-02-19T02:50:30.031Z,100.80
2023-02-19T02:53:20.819Z,98.60
2023-02-19T02:55:52.329Z,104.10
2023-02-19T02:58:21.774Z,82.30
2023-02-19T03:01:13.569Z,72.20
2023-02-19T03:03:44.026Z,87.07
2023-02-19T03:06:13.461Z,86.80
2023-02-19T03:08:42.422Z,56.60
2023-02-19T03:11:32.018Z,51.07
2023-02-19T03:14:53.934Z,51.87
2023-02-19T03:18:11.278Z,53.60
2023-02-19T03:20:42.143Z,38.50
2023-02-19T03:23:11.267Z,52.50
2023-02-19T03:25:58.260Z,69.30
2023-02-19T03:28:57.422Z,58.20
2023-02-19T03:31:29.435Z,59.03
2023-02-19T03:34:03.765Z,52.50
2023-02-19T03:36:40.733Z,53.07
2023-02-19T03:39:11.193Z,51.10
2023-02-19T03:42:04.988Z,53.87
2023-02-19T03:45:03.290Z,60.07
2023-02-19T03:47:42.283Z,64.63
2023-02-19T03:50:15.846Z,73.97
2023-02-19T03:52:52.524Z,78.27
2023-02-19T03:55:31.162Z,71.73
2023-02-19T03:58:09.130Z,61.33
2023-02-19T04:00:55.433Z,66.90
2023-02-19T04:03:47.095Z,69.20
2023-02-19T04:06:19.977Z,61.13
2023-02-19T04:08:52.490Z,67.27
2023-02-19T04:11:22.636Z,62.67
2023-02-19T04:14:01.407Z,49.57
2023-02-19T04:16:30.622Z,59.33
2023-02-19T04:19:04.604Z,62.73
2023-02-19T04:21:33.973Z,48.10
2023-02-19T04:24:06.533Z,31.67
2023-02-19T04:26:35.011Z,33.53
2023-02-19T04:29:02.329Z,36.67
2023-02-19T04:31:31.568Z,38.90
2023-02-19T04:33:58.621Z,39.10
2023-02-19T04:36:25.630Z,37.83
2023-02-19T04:38:52.661Z,38.50
2023-02-19T04:41:19.687Z,38.83
2023-02-19T04:43:46.650Z,34.13
2023-02-19T04:46:13.685Z,43.50
2023-02-19T04:48:40.744Z,42.93
2023-02-19T04:51:08.031Z,44.57
2023-02-19T04:53:36.239Z,44.77
2023-02-19T04:56:11.098Z,38.83
2023-02-19T04:58:38.092Z,41.50
2023-02-19T05:01:05.434Z,39.43
2023-02-19T05:03:35.181Z,43.10
2023-02-19T05:06:08.608Z,49.80
2023-02-19T05:08:35.635Z,47.57
2023-02-19T05:11:04.602Z,46.97
2023-02-19T05:13:32.125Z,47.57
2023-02-19T05:16:07.668Z,47.13
2023-02-19T05:18:34.956Z,43.37
2023-02-19T05:21:02.727Z,45.03
2023-02-19T05:23:29.873Z,46.17
2023-02-19T05:25:56.849Z,42.70
2023-02-19T05:28:29.086Z,47.93
2023-02-19T05:30:57.827Z,46.30
2023-02-19T05:33:26.372Z,49.00
2023-02-19T05:35:55.324Z,46.80
2023-02-19T05:38:23.575Z,47.67
2023-02-19T05:40:51.297Z,47.70
2023-02-19T05:43:18.665Z,49.53
2023-02-19T05:45:45.692Z,48.67
2023-02-19T05:48:13.172Z,47.00
2023-02-19T05:50:40.212Z,41.33
2023-02-19T05:53:13.328Z,41.80
2023-02-19T05:55:40.377Z,44.63
2023-02-19T05:58:07.358Z,43.17
2023-02-19T06:00:34.910Z,39.57
2023-02-19T06:03:02.502Z,43.80
2023-02-19T06:05:29.550Z,40.63
2023-02-19T06:07:56.648Z,43.13
2023-02-19T06:10:23.595Z,41.20
2023-02-19T06:12:53.655Z,43.00
2023-02-19T06:15:21.911Z,40.67
2023-02-19T06:17:49.405Z,45.13
2023-02-19T06:20:16.606Z,43.53
2023-02-19T06:22:43.716Z,40.93
2023-02-19T06:25:12.866Z,39.87
2023-02-19T06:27:39.984Z,35.43
2023-02-19T06:30:07.620Z,35.77
2023-02-19T06:32:34.674Z,34.77
2023-02-19T06:35:01.705Z,32.30
2023-02-19T06:37:29.500Z,30.40
2023-02-19T06:39:56.990Z,29.53
2023-02-19T06:42:24.033Z,31.83
2023-02-19T06:44:51.041Z,33.63
2023-02-19T06:47:18.068Z,31.97
2023-02-19T06:49:45.065Z,31.77
2023-02-19T06:52:12.232Z,29.67
2023-02-19T06:54:39.245Z,31.40
2023-02-19T06:57:06.347Z,28.37
2023-02-19T06:59:33.405Z,30.43
2023-02-19T07:02:00.613Z,30.73
2023-02-19T07:04:27.648Z,30.53
2023-02-19T07:06:54.718Z,32.17
2023-02-19T07:09:22.123Z,35.90
2023-02-19T07:11:49.289Z,34.33
2023-02-19T07:14:17.183Z,33.87
2023-02-19T07:16:44.769Z,35.23
2023-02-19T07:19:12.244Z,35.53
2023-02-19T07:21:39.705Z,38.73
2023-02-19T07:24:06.985Z,39.43
2023-02-19T07:26:34.906Z,39.33
2023-02-19T07:29:02.450Z,38.03
2023-02-19T07:31:29.839Z,38.73
2023-02-19T07:33:57.182Z,39.40
2023-02-19T07:36:25.004Z,39.90
2023-02-19T07:39:00.154Z,38.90
2023-02-19T07:41:29.048Z,40.72
2023-02-19T07:43:58.322Z,45.07
2023-02-19T07:46:25.891Z,49.97
2023-02-19T07:48:52.978Z,50.43
2023-02-19T07:51:20.633Z,66.90
2023-02-19T07:53:50.626Z,66.10
2023-02-19T07:56:20.005Z,57.60
2023-02-19T07:58:47.135Z,56.60
2023-02-19T08:01:16.066Z,58.07
2023-02-19T08:03:44.304Z,62.40
2023-02-19T08:06:12.745Z,67.10
2023-02-19T08:08:40.543Z,69.35
2023-02-19T08:11:26.556Z,71.93
2023-02-19T08:13:54.020Z,70.63
2023-02-19T08:16:36.701Z,73.28
2023-02-19T08:19:08.027Z,76.18
2023-02-19T08:21:35.038Z,83.85
2023-02-19T08:24:02.042Z,79.18
2023-02-19T08:26:29.057Z,75.68
2023-02-19T08:28:56.060Z,76.03
2023-02-19T08:31:23.141Z,68.03
2023-02-19T08:33:50.274Z,66.20
2023-02-19T08:36:17.492Z,62.53
2023-02-19T08:38:44.485Z,64.35
2023-02-19T08:41:14.156Z,65.22
2023-02-19T08:43:42.413Z,63.45
2023-02-19T08:46:11.412Z,68.47
2023-02-19T08:48:39.549Z,65.45
2023-02-19T08:51:10.263Z,59.15
2023-02-19T08:53:39.175Z,60.65
2023-02-19T08:56:08.767Z,59.97
2023-02-19T08:58:37.879Z,60.45
2023-02-19T09:01:14.565Z,54.67
2023-02-19T09:03:43.318Z,53.72
2023-02-19T09:06:18.882Z,58.38
2023-02-19T09:08:46.126Z,60.15
2023-02-19T09:11:13.638Z,57.70
2023-02-19T09:13:41.130Z,54.03
2023-02-19T09:16:08.866Z,51.08
2023-02-19T09:18:36.471Z,50.80
2023-02-19T09:21:05.598Z,55.65
2023-02-19T09:23:36.999Z,55.20
2023-02-19T09:26:07.220Z,54.67
2023-02-19T09:28:39.905Z,55.17
2023-02-19T09:31:08.482Z,55.33
2023-02-19T09:33:36.142Z,55.30
2023-02-19T09:36:04.171Z,41.45
2023-02-19T09:38:31.795Z,43.13
2023-02-19T09:40:59.662Z,43.42
2023-02-19T09:43:30.410Z,35.83
2023-02-19T09:46:27.966Z,40.13
2023-02-19T09:49:11.863Z,43.27
2023-02-19T09:51:41.764Z,42.83
2023-02-19T09:54:20.718Z,43.00
2023-02-19T09:56:48.496Z,42.75
2023-02-19T09:59:26.732Z,40.30
2023-02-19T10:02:04.971Z,37.60
2023-02-19T10:04:32.511Z,36.55
2023-02-19T10:07:03.713Z,34.00
2023-02-19T10:09:31.615Z,33.72
2023-02-19T10:12:00.737Z,33.40
2023-02-19T10:14:47.699Z,30.58
2023-02-19T10:17:24.301Z,35.17
2023-02-19T10:19:54.808Z,39.00
2023-02-19T10:22:22.343Z,38.53
2023-02-19T10:24:54.513Z,31.67
2023-02-19T10:27:22.018Z,31.23
2023-02-19T10:29:50.642Z,27.33
2023-02-19T10:32:26.404Z,30.20
2023-02-19T10:35:15.310Z,25.65
2023-02-19T10:37:50.188Z,22.95
2023-02-19T10:40:20.990Z,24.90
2023-02-19T10:42:51.023Z,27.27
2023-02-19T10:45:50.550Z,25.70
2023-02-19T10:48:40.417Z,25.95
2023-02-19T10:51:11.812Z,24.55
2023-02-19T10:53:43.848Z,22.15
2023-02-19T10:56:15.908Z,22.23
2023-02-19T10:58:45.180Z,20.00
2023-02-19T11:01:27.578Z,18.60
2023-02-19T11:04:16.353Z,19.10
2023-02-19T11:06:45.292Z,22.13
2023-02-19T11:09:31.041Z,19.45
2023-02-19T11:11:59.919Z,19.25
2023-02-19T11:14:29.526Z,20.90
2023-02-19T11:16:58.762Z,20.38
2023-02-19T11:19:43.115Z,18.83
2023-02-19T11:22:30.986Z,17.77
2023-02-19T11:25:10.675Z,17.63
2023-02-19T11:27:54.480Z,18.00
2023-02-19T11:30:30.657Z,18.60
2023-02-19T11:33:16.345Z,18.38
2023-02-19T11:35:47.708Z,16.58
2023-02-19T11:38:17.465Z,15.60
2023-02-19T11:40:45.980Z,17.90
2023-02-19T11:43:31.386Z,17.70
2023-02-19T11:46:04.345Z,15.98
2023-02-19T11:48:48.618Z,14.93
2023-02-19T11:51:30.848Z,18.98
2023-02-19T11:54:18.989Z,16.48
2023-02-19T11:57:07.234Z,17.00
2023-02-19T11:59:52.781Z,16.00
2023-02-19T12:02:50.744Z,16.10
2023-02-19T12:05:34.274Z,15.27
2023-02-19T12:08:32.590Z,15.98
2023-02-19T12:11:12.389Z,17.38
2023-02-19T12:13:39.350Z,15.57
2023-02-19T12:16:25.998Z,15.55
2023-02-19T12:19:24.402Z,15.97
2023-02-19T12:22:00.721Z,16.30
2023-02-19T12:24:36.860Z,16.00
2023-02-19T12:27:32.614Z,17.63
2023-02-19T12:30:28.019Z,15.38
2023-02-19T12:33:30.903Z,16.05
2023-02-19T12:36:25.532Z,16.15
2023-02-19T12:39:05.464Z,16.95
2023-02-19T12:41:49.473Z,15.48
2023-02-19T12:44:56.529Z,15.98
2023-02-19T12:47:31.733Z,15.95
2023-02-19T12:50:26.469Z,15.63
2023-02-19T12:53:02.279Z,14.90
2023-02-19T12:55:35.208Z,15.13
2023-02-19T12:58:10.336Z,14.50
2023-02-19T13:00:42.940Z,14.88
2023-02-19T13:03:28.821Z,14.40
2023-02-19T13:06:21.745Z,15.30
2023-02-19T13:09:09.073Z,15.43
2023-02-19T13:11:43.125Z,16.05
2023-02-19T13:14:39.687Z,14.95
2023-02-19T13:17:34.441Z,15.02
2023-02-19T13:20:19.934Z,15.25
2023-02-19T13:23:42.721Z,15.68
2023-02-19T13:26:47.078Z,16.70
2023-02-19T13:29:53.264Z,16.85
2023-02-19T13:32:52.568Z,16.10
2023-02-19T13:36:06.293Z,14.73
2023-02-19T13:38:43.105Z,13.45
2023-02-19T13:41:20.611Z,15.15
2023-02-19T13:43:55.443Z,14.57
2023-02-19T13:46:23.684Z,15.57
2023-02-19T13:49:39.329Z,16.02
2023-02-19T13:52:30.672Z,18.27
2023-02-19T13:55:34.920Z,15.93
2023-02-19T13:58:32.827Z,15.77
2023-02-19T14:04:07.168Z,16.88
2023-02-19T14:07:04.968Z,15.73
2023-02-19T14:09:34.699Z,42.80
2023-02-19T14:12:06.488Z,19.15
2023-02-19T14:14:39.688Z,15.95
2023-02-19T14:17:09.548Z,13.45
2023-02-19T14:19:36.496Z,13.18
2023-02-19T14:22:41.865Z,13.50
2023-02-19T14:25:26.741Z,12.75
2023-02-19T14:28:17.715Z,11.95
2023-02-19T14:31:18.101Z,12.23
2023-02-19T14:33:53.470Z,13.43
2023-02-19T14:36:26.848Z,12.57
2023-02-19T14:38:58.705Z,28.67
2023-02-19T14:41:28.931Z,43.22
2023-02-19T14:43:58.772Z,19.25
2023-02-19T14:46:38.077Z,15.40
2023-02-19T14:49:14.663Z,15.20
2023-02-19T14:51:46.072Z,14.82
2023-02-19T14:54:18.827Z,14.60
2023-02-19T14:56:50.962Z,15.05
2023-02-19T14:59:23.388Z,12.43
2023-02-19T15:02:08.042Z,12.23
2023-02-19T15:04:36.793Z,11.48
2023-02-19T15:07:10.654Z,11.90
2023-02-19T15:09:45.136Z,13.10
2023-02-19T15:12:46.592Z,13.00
2023-02-19T15:15:25.715Z,16.98
2023-02-19T15:17:54.817Z,12.80
2023-02-19T15:20:28.477Z,13.00
2023-02-19T15:22:58.853Z,12.00
2023-02-19T15:25:33.041Z,15.40
2023-02-19T15:28:26.002Z,13.23
2023-02-19T15:30:59.483Z,15.65
2023-02-19T15:33:28.488Z,14.10
2023-02-19T15:36:01.942Z,17.83
2023-02-19T15:38:30.090Z,18.83
2023-02-19T15:40:58.832Z,67.55
2023-02-19T15:43:31.264Z,57.90
2023-02-19T15:46:06.736Z,53.50
2023-02-19T15:48:46.787Z,53.92
2023-02-19T15:51:23.783Z,40.83
2023-02-19T15:53:57.369Z,47.83
2023-02-19T15:56:34.716Z,31.10
2023-02-19T15:59:07.794Z,29.42
2023-02-19T16:01:39.120Z,29.98
2023-02-19T16:04:16.229Z,30.80
2023-02-19T16:09:23.696Z,32.63
2023-02-19T16:11:55.997Z,34.90
2023-02-19T16:14:34.725Z,26.38
2023-02-19T16:17:08.215Z,24.00
2023-02-19T16:19:52.877Z,27.55
2023-02-19T16:22:23.563Z,34.13
2023-02-19T16:25:00.790Z,36.97
2023-02-19T16:27:37.293Z,33.70
2023-02-19T16:30:25.431Z,35.78
2023-02-19T16:33:22.038Z,39.92
2023-02-19T16:35:52.463Z,41.22
2023-02-19T16:38:20.858Z,31.63
2023-02-19T16:40:54.484Z,37.45
2023-02-19T16:43:42.290Z,30.52
2023-02-19T16:46:12.033Z,36.15
2023-02-19T16:48:39.826Z,33.35
2023-02-19T16:51:08.454Z,24.92
2023-02-19T16:53:35.717Z,22.85
2023-02-19T16:56:02.832Z,32.15
2023-02-19T16:58:29.825Z,74.25
2023-02-19T17:00:57.613Z,66.65
2023-02-19T17:03:25.644Z,70.18
2023-02-19T17:05:53.519Z,92.65
2023-02-19T17:08:34.377Z,159.10
2023-02-19T17:11:04.477Z,115.93
2023-02-19T17:13:31.709Z,91.90
2023-02-19T17:15:59.133Z,61.38
2023-02-19T17:18:26.159Z,50.95
2023-02-19T17:21:11.590Z,51.33
2023-02-19T17:23:39.130Z,85.30
2023-02-19T17:26:06.186Z,65.13
2023-02-19T17:28:33.304Z,72.82
2023-02-19T17:31:00.463Z,79.90
2023-02-19T17:33:27.474Z,87.93
2023-02-19T17:35:54.516Z,72.45
2023-02-19T17:38:21.688Z,87.20
2023-02-19T17:40:48.926Z,75.88
2023-02-19T17:43:15.980Z,128.65
2023-02-19T17:45:43.143Z,128.00
2023-02-19T17:48:13.748Z,110.60
2023-02-19T17:50:42.347Z,68.30
2023-02-19T17:53:09.795Z,34.78
2023-02-19T17:55:37.215Z,35.90
2023-02-19T17:58:04.428Z,27.25
2023-02-19T18:00:32.479Z,25.33
2023-02-19T18:02:59.646Z,22.90
2023-02-19T18:05:27.011Z,20.08
2023-02-19T18:07:54.104Z,19.20
2023-02-19T18:10:23.773Z,20.00
2023-02-19T18:12:51.489Z,22.17
2023-02-19T18:15:22.856Z,25.23
2023-02-19T18:17:50.367Z,26.83
2023-02-19T18:20:25.724Z,29.20
2023-02-19T18:22:53.957Z,29.58
2023-02-19T18:25:21.842Z,28.65
2023-02-19T18:27:49.707Z,30.17
2023-02-19T18:30:19.200Z,32.05
2023-02-19T18:32:50.408Z,27.40
2023-02-19T18:35:19.623Z,36.70
2023-02-19T18:37:52.012Z,32.35
2023-02-19T18:40:25.483Z,34.17
2023-02-19T18:42:53.916Z,40.33
2023-02-19T18:45:21.137Z,37.92
2023-02-19T18:47:49.908Z,38.70
2023-02-19T18:50:19.423Z,31.10
2023-02-19T18:52:47.118Z,40.35
2023-02-19T18:55:14.191Z,32.35
2023-02-19T18:57:42.496Z,33.88
2023-02-19T19:00:10.054Z,22.35
2023-02-19T19:02:48.734Z,32.13
2023-02-19T19:05:23.385Z,27.13
2023-02-19T19:07:55.968Z,30.13
2023-02-19T19:10:24.537Z,27.98
2023-02-19T19:12:52.024Z,34.22
2023-02-19T19:15:19.534Z,26.70
2023-02-19T19:17:48.485Z,31.58
2023-02-19T19:20:21.688Z,33.30
2023-02-19T19:22:50.951Z,41.53
2023-02-19T19:25:19.002Z,51.92
2023-02-19T19:27:46.642Z,42.10
2023-02-19T19:30:14.142Z,50.55
2023-02-19T19:32:41.500Z,32.10
2023-02-19T19:35:09.638Z,40.05
2023-02-19T19:37:36.727Z,43.35
2023-02-19T19:40:04.245Z,47.05
2023-02-19T19:42:31.369Z,49.40
2023-02-19T19:45:01.932Z,45.40
2023-02-19T19:47:29.945Z,45.72
2023-02-19T19:49:57.406Z,44.42
2023-02-19T19:52:24.954Z,45.22
2023-02-19T19:54:54.375Z,39.60
2023-02-19T19:57:21.910Z,39.47
2023-02-19T19:59:51.417Z,44.97
2023-02-19T20:02:19.893Z,48.58
2023-02-19T20:04:47.087Z,45.53
2023-02-19T20:07:14.261Z,42.83
2023-02-19T20:09:41.591Z,39.95
2023-02-19T20:12:09.063Z,41.50
2023-02-19T20:14:36.799Z,47.63
2023-02-19T20:17:03.881Z,48.25
2023-02-19T20:19:31.225Z,48.30
2023-02-19T20:21:58.458Z,41.33
2023-02-19T20:24:29.038Z,37.35
2023-02-19T20:27:02.404Z,41.80
2023-02-19T20:29:32.069Z,29.13
2023-02-19T20:32:00.781Z,42.95
2023-02-19T20:34:28.932Z,43.90
2023-02-19T20:36:56.143Z,45.33
2023-02-19T20:39:28.819Z,47.97
2023-02-19T20:41:57.602Z,47.17
2023-02-19T20:44:26.120Z,48.05
2023-02-19T20:46:53.850Z,12.95
2023-02-19T20:49:23.195Z,39.22
2023-02-19T20:51:54.975Z,36.15
2023-02-19T20:54:26.078Z,41.83
2023-02-19T20:56:55.219Z,21.77
2023-02-19T20:59:24.899Z,17.20
2023-02-19T21:01:52.150Z,20.02
2023-02-19T21:04:20.325Z,6.45
2023-02-19T21:06:48.317Z,24.77
2023-02-19T21:09:15.821Z,17.90
2023-02-19T21:11:43.440Z,7.40
2023-02-19T21:14:10.595Z,10.18
2023-02-19T21:16:38.056Z,28.00
2023-02-19T21:19:05.261Z,28.52
2023-02-19T21:21:34.659Z,26.15
2023-02-19T21:24:03.153Z,15.65
2023-02-19T21:26:35.653Z,19.88
2023-02-19T21:29:04.473Z,13.55
2023-02-19T21:31:37.122Z,16.27
2023-02-19T21:34:06.286Z,15.18
2023-02-19T21:36:38.036Z,16.88
2023-02-19T21:39:07.635Z,7.95
2023-02-19T21:41:35.645Z,10.00
2023-02-19T21:44:03.531Z,6.03
2023-02-19T21:46:30.606Z,6.57
2023-02-19T21:48:59.686Z,5.40
2023-02-19T21:51:34.284Z,6.30
2023-02-19T21:54:08.273Z,7.40
2023-02-19T21:56:36.877Z,6.30
2023-02-19T21:59:06.658Z,5.97
2023-02-19T22:01:40.314Z,5.40
2023-02-19T22:04:09.007Z,5.35
2023-02-19T22:06:37.048Z,5.45
2023-02-19T22:09:05.188Z,6.95
2023-02-19T22:11:32.172Z,7.80
2023-02-19T22:14:00.783Z,11.52
2023-02-19T22:16:28.933Z,13.55
2023-02-19T22:19:00.325Z,11.95
2023-02-19T22:21:33.141Z,14.55
2023-02-19T22:24:01.895Z,12.95
2023-02-19T22:26:31.964Z,10.63
2023-02-19T22:29:00.121Z,9.88
2023-02-19T22:31:27.923Z,10.10
2023-02-19T22:33:56.353Z,11.43
2023-02-19T22:36:34.449Z,23.63
2023-02-19T22:39:02.174Z,20.52
2023-02-19T22:41:29.529Z,20.42
2023-02-19T22:43:57.942Z,23.60
2023-02-19T22:46:28.873Z,20.20
2023-02-19T22:48:56.422Z,18.73
2023-02-19T22:51:24.499Z,25.05
2023-02-19T22:53:55.125Z,29.27
2023-02-19T22:56:27.669Z,32.45
2023-02-19T22:58:56.934Z,29.67
2023-02-19T23:01:24.627Z,27.98
2023-02-19T23:03:54.165Z,28.90
2023-02-19T23:06:27.855Z,27.33
2023-02-19T23:08:56.816Z,25.65
2023-02-19T23:11:29.205Z,25.30
2023-02-19T23:13:57.058Z,22.95
2023-02-19T23:16:24.453Z,22.98
2023-02-19T23:18:52.189Z,23.98
2023-02-19T23:21:20.298Z,23.83
2023-02-19T23:23:48.637Z,21.83
2023-02-19T23:26:16.520Z,25.98
2023-02-19T23:28:44.885Z,25.70
2023-02-19T23:31:13.269Z,25.33
2023-02-19T23:33:41.176Z,25.00
2023-02-19T23:36:09.283Z,26.88
2023-02-19T23:38:37.224Z,26.25
2023-02-19T23:41:09.132Z,23.15
2023-02-19T23:43:36.671Z,22.33
2023-02-19T23:46:04.358Z,22.80
2023-02-19T23:48:32.780Z,25.85
2023-02-19T23:50:59.746Z,25.73
2023-02-19T23:53:27.119Z,25.65
2023-02-19T23:55:54.410Z,26.10
2023-02-19T23:58:21.796Z,25.02
